createdAt,value
2023-03-22T00:01:21.752Z,81.10
2023-03-22T00:03:49.422Z,81.00
2023-03-22T00:06:16.850Z,81.20
2023-03-22T00:08:44.606Z,81.30
2023-03-22T00:11:12.875Z,81.50
2023-03-22T00:13:43.034Z,81.70
2023-03-22T00:16:11.110Z,81.80
2023-03-22T00:18:38.227Z,82.10
2023-03-22T00:21:05.876Z,82.00
2023-03-22T00:23:32.849Z,81.90
2023-03-22T00:25:59.993Z,82.00
2023-03-22T00:28:26.937Z,82.10
2023-03-22T00:31:00.058Z,82.00
2023-03-22T00:33:28.889Z,82.00
2023-03-22T00:35:59.551Z,82.00
2023-03-22T00:38:42.382Z,82.00
2023-03-22T00:41:16.336Z,82.00
2023-03-22T00:43:46.109Z,81.90
2023-03-22T00:47:04.366Z,81.80
2023-03-22T00:49:31.587Z,81.70
2023-03-22T00:51:58.575Z,81.90
2023-03-22T00:54:25.720Z,81.90
2023-03-22T00:56:52.874Z,82.20
2023-03-22T00:59:19.888Z,82.40
2023-03-22T01:01:46.925Z,82.60
2023-03-22T01:04:18.109Z,82.70
2023-03-22T01:06:47.337Z,82.70
2023-03-22T01:09:15.266Z,82.80
2023-03-22T01:11:43.555Z,83.10
2023-03-22T01:14:10.705Z,83.60
2023-03-22T01:16:37.846Z,83.80
2023-03-22T01:19:04.935Z,84.00
2023-03-22T01:21:32.302Z,84.30
2023-03-22T01:23:59.362Z,84.30
2023-03-22T01:26:26.360Z,84.60
2023-03-22T01:28:53.337Z,84.70
2023-03-22T01:31:20.421Z,84.70
2023-03-22T01:33:47.715Z,84.80
2023-03-22T01:36:14.889Z,85.00
2023-03-22T01:38:41.974Z,85.10
2023-03-22T01:41:09.071Z,85.10
2023-03-22T01:43:39.822Z,85.10
2023-03-22T01:46:08.321Z,85.30
2023-03-22T01:48:42.242Z,85.40
2023-03-22T01:51:16.975Z,85.30
2023-03-22T01:54:06.549Z,85.30
2023-03-22T01:56:38.812Z,85.70
2023-03-22T01:59:09.763Z,85.90
2023-03-22T02:02:03.769Z,85.90
2023-03-22T02:04:39.331Z,86.20
2023-03-22T02:07:15.651Z,86.50
2023-03-22T02:09:46.658Z,86.60
2023-03-22T02:12:35.776Z,86.70
2023-03-22T02:15:22.866Z,86.80
2023-03-22T02:18:24.041Z,86.80
2023-03-22T02:21:02.549Z,86.70
2023-03-22T02:23:48.113Z,86.80
2023-03-22T02:26:49.641Z,87.20
2023-03-22T02:29:36.811Z,87.70
2023-03-22T02:32:03.802Z,87.80
2023-03-22T02:38:48.564Z,88.00
2023-03-22T02:41:42.978Z,88.80
2023-03-22T02:44:20.873Z,88.90
2023-03-22T02:47:28.463Z,88.70
2023-03-22T02:50:15.931Z,88.80
2023-03-22T02:53:26.580Z,88.60
2023-03-22T02:56:02.125Z,88.50
2023-03-22T02:58:39.340Z,88.70
2023-03-22T03:01:12.938Z,88.70
2023-03-22T03:03:40.367Z,89.00
2023-03-22T03:06:12.956Z,89.00
2023-03-22T03:09:36.004Z,88.70
2023-03-22T03:12:03.004Z,89.10
2023-03-22T03:14:32.682Z,89.10
2023-03-22T03:17:37.886Z,89.20
2023-03-22T03:20:24.347Z,89.70
2023-03-22T03:23:37.327Z,90.40
2023-03-22T03:26:13.685Z,90.60
2023-03-22T03:28:57.197Z,90.60
2023-03-22T03:31:27.266Z,90.50
2023-03-22T03:34:25.719Z,90.80
2023-03-22T03:37:00.767Z,90.60
2023-03-22T03:39:32.777Z,90.40
2023-03-22T03:42:02.370Z,90.40
2023-03-22T03:44:31.632Z,90.40
2023-03-22T03:46:59.796Z,90.60
2023-03-22T03:49:27.372Z,90.60
2023-03-22T03:51:56.212Z,90.70
2023-03-22T03:54:23.977Z,90.70
2023-03-22T03:56:51.197Z,90.80
2023-03-22T03:59:20.977Z,90.80
2023-03-22T04:01:52.375Z,90.70
2023-03-22T04:04:29.842Z,90.90
2023-03-22T04:07:06.176Z,92.00
2023-03-22T04:09:38.254Z,93.00
2023-03-22T04:12:18.852Z,93.30
2023-03-22T04:15:06.333Z,93.00
2023-03-22T04:17:33.604Z,92.70
2023-03-22T04:20:05.912Z,92.50
2023-03-22T04:22:34.711Z,91.90
2023-03-22T04:25:02.392Z,91.70
2023-03-22T04:27:30.172Z,91.20
2023-03-22T04:30:05.021Z,91.30
2023-03-22T04:32:52.015Z,91.10
2023-03-22T04:35:24.627Z,90.80
2023-03-22T04:37:53.869Z,90.80
2023-03-22T04:40:22.083Z,90.60
2023-03-22T04:43:04.154Z,90.70
2023-03-22T04:45:55.056Z,90.40
2023-03-22T04:48:28.159Z,90.60
2023-03-22T04:50:57.354Z,90.90
2023-03-22T04:53:27.670Z,91.20
2023-03-22T04:55:59.815Z,91.10
2023-03-22T04:58:29.257Z,91.20
2023-03-22T05:00:56.300Z,91.30
2023-03-22T05:03:23.874Z,92.50
2023-03-22T05:05:58.713Z,93.80
2023-03-22T05:08:34.164Z,94.50
2023-03-22T05:11:12.473Z,95.40
2023-03-22T05:13:40.005Z,95.80
2023-03-22T05:16:08.625Z,96.00
2023-03-22T05:18:45.701Z,96.40
2023-03-22T05:21:17.955Z,96.90
2023-03-22T05:23:46.280Z,97.30
2023-03-22T05:26:16.223Z,97.50
2023-03-22T05:28:44.504Z,97.90
2023-03-22T05:31:34.739Z,98.10
2023-03-22T05:34:03.379Z,98.10
2023-03-22T05:36:31.494Z,98.10
2023-03-22T05:39:10.448Z,98.10
2023-03-22T05:41:37.548Z,98.10
2023-03-22T05:44:05.456Z,98.00
2023-03-22T05:46:34.061Z,98.00
2023-03-22T05:49:22.049Z,97.80
2023-03-22T05:51:50.673Z,97.60
2023-03-22T05:54:18.619Z,97.40
2023-03-22T05:56:49.921Z,97.10
2023-03-22T05:59:17.428Z,96.70
2023-03-22T06:01:45.069Z,96.30
2023-03-22T06:04:18.857Z,96.00
2023-03-22T06:06:57.946Z,95.90
2023-03-22T06:09:47.528Z,95.70
2023-03-22T06:12:22.686Z,95.40
2023-03-22T06:14:53.588Z,95.40
2023-03-22T06:17:36.654Z,95.20
2023-03-22T06:20:32.322Z,95.00
2023-03-22T06:23:04.108Z,94.90
2023-03-22T06:25:32.018Z,94.60
2023-03-22T06:27:59.752Z,94.30
2023-03-22T06:30:28.494Z,94.30
2023-03-22T06:33:18.635Z,93.90
2023-03-22T06:35:50.334Z,93.00
2023-03-22T06:38:25.885Z,92.50
2023-03-22T06:40:53.339Z,92.40
2023-03-22T06:43:20.777Z,91.60
2023-03-22T06:45:50.232Z,91.20
2023-03-22T06:48:22.637Z,91.00
2023-03-22T06:51:04.029Z,90.50
2023-03-22T06:53:34.052Z,90.40
2023-03-22T06:56:02.215Z,90.50
2023-03-22T06:58:30.307Z,89.70
2023-03-22T07:00:58.292Z,89.40
2023-03-22T07:03:26.570Z,89.00
2023-03-22T07:06:16.246Z,88.80
2023-03-22T07:08:47.123Z,88.70
2023-03-22T07:11:18.743Z,88.80
2023-03-22T07:13:50.507Z,88.70
2023-03-22T07:16:21.679Z,88.30
2023-03-22T07:18:55.981Z,88.40
2023-03-22T07:21:23.494Z,88.00
2023-03-22T07:23:58.296Z,87.80
2023-03-22T07:26:30.596Z,87.70
2023-03-22T07:28:58.821Z,86.40
2023-03-22T07:35:48.780Z,86.60
2023-03-22T07:38:16.071Z,86.60
2023-03-22T07:40:43.144Z,86.20
2023-03-22T07:43:13.222Z,85.50
2023-03-22T07:45:54.009Z,85.00
2023-03-22T07:48:44.206Z,85.00
2023-03-22T07:51:30.453Z,84.90
2023-03-22T07:53:58.197Z,84.30
2023-03-22T07:56:25.292Z,83.50
2023-03-22T07:58:53.495Z,83.30
2023-03-22T08:02:35.630Z,83.00
2023-03-22T08:05:03.155Z,82.50
2023-03-22T08:07:42.452Z,82.10
2023-03-22T08:10:11.520Z,81.10
2023-03-22T08:12:38.563Z,80.90
2023-03-22T08:15:26.340Z,81.10
2023-03-22T08:17:53.983Z,81.10
2023-03-22T08:20:30.227Z,79.40
2023-03-22T08:23:01.493Z,77.90
2023-03-22T08:26:39.481Z,78.00
2023-03-22T08:29:15.619Z,76.10
2023-03-22T08:31:47.125Z,75.20
2023-03-22T08:34:14.237Z,74.70
2023-03-22T08:36:41.333Z,73.90
2023-03-22T08:39:09.700Z,73.00
2023-03-22T08:41:44.772Z,72.20
2023-03-22T08:44:11.754Z,72.10
2023-03-22T08:46:38.811Z,71.80
2023-03-22T08:49:06.387Z,69.90
2023-03-22T08:51:41.086Z,71.00
2023-03-22T08:54:16.647Z,70.70
2023-03-22T08:56:52.614Z,69.50
2023-03-22T08:59:33.416Z,69.10
2023-03-22T09:02:26.383Z,67.60
2023-03-22T09:04:54.103Z,66.70
2023-03-22T09:07:21.379Z,65.80
2023-03-22T09:09:57.830Z,66.30
2023-03-22T09:12:26.329Z,67.40
2023-03-22T09:15:48.072Z,66.50
2023-03-22T09:18:25.440Z,65.70
2023-03-22T09:20:54.175Z,64.80
2023-03-22T09:23:26.560Z,64.10
2023-03-22T09:25:54.539Z,64.50
2023-03-22T09:28:25.281Z,64.10
2023-03-22T09:30:55.496Z,62.80
2023-03-22T09:33:23.446Z,63.70
2023-03-22T09:35:54.507Z,63.90
2023-03-22T09:38:21.660Z,63.10
2023-03-22T09:41:00.963Z,62.40
2023-03-22T09:43:36.040Z,62.50
2023-03-22T09:46:06.681Z,61.30
2023-03-22T09:48:42.143Z,61.50
2023-03-22T09:51:29.120Z,62.70
2023-03-22T09:53:56.103Z,63.30
2023-03-22T09:56:26.137Z,61.90
2023-03-22T09:58:53.110Z,61.80
2023-03-22T10:01:52.220Z,61.10
2023-03-22T10:04:22.156Z,60.50
2023-03-22T10:06:50.758Z,60.20
2023-03-22T10:09:36.928Z,60.60
2023-03-22T10:12:19.255Z,60.00
2023-03-22T10:19:21.419Z,59.00
2023-03-22T10:21:50.532Z,58.70
2023-03-22T10:24:30.128Z,58.10
2023-03-22T10:26:57.536Z,59.60
2023-03-22T10:29:40.135Z,58.70
2023-03-22T10:32:19.042Z,60.10
2023-03-22T10:34:46.767Z,60.20
2023-03-22T10:37:22.426Z,58.80
2023-03-22T10:39:53.980Z,57.30
2023-03-22T10:42:27.966Z,58.20
2023-03-22T10:44:57.809Z,57.90
2023-03-22T10:47:42.926Z,56.90
2023-03-22T10:50:26.733Z,57.50
2023-03-22T10:53:07.088Z,58.50
2023-03-22T10:55:41.365Z,58.20
2023-03-22T10:58:22.813Z,56.30
2023-03-22T11:00:52.338Z,58.10
2023-03-22T11:03:27.589Z,57.10
2023-03-22T11:06:22.118Z,57.70
2023-03-22T11:08:54.845Z,56.10
2023-03-22T11:11:26.217Z,53.70
2023-03-22T11:14:13.252Z,55.10
2023-03-22T11:17:06.514Z,56.00
2023-03-22T11:19:42.392Z,54.70
2023-03-22T11:22:26.540Z,54.60
2023-03-22T11:24:56.922Z,54.00
2023-03-22T11:27:33.527Z,54.60
2023-03-22T11:30:17.566Z,53.10
2023-03-22T11:32:44.625Z,52.90
2023-03-22T11:35:22.023Z,52.80
2023-03-22T11:37:54.175Z,54.90
2023-03-22T11:40:30.474Z,53.70
2023-03-22T11:43:18.126Z,52.90
2023-03-22T11:45:46.006Z,55.70
2023-03-22T11:48:20.822Z,54.00
2023-03-22T11:50:49.490Z,52.60
2023-03-22T11:53:21.424Z,52.40
2023-03-22T11:55:50.269Z,51.10
2023-03-22T11:58:37.509Z,50.20
2023-03-22T12:01:06.123Z,50.10
2023-03-22T12:03:40.339Z,49.70
2023-03-22T12:06:23.009Z,48.50
2023-03-22T12:09:03.200Z,49.50
2023-03-22T12:12:03.763Z,50.40
2023-03-22T12:14:51.369Z,50.00
2023-03-22T12:17:34.205Z,50.40
2023-03-22T12:20:20.988Z,51.30
2023-03-22T12:22:52.878Z,51.70
2023-03-22T12:25:23.754Z,52.40
2023-03-22T12:28:25.293Z,51.80
2023-03-22T12:30:58.729Z,52.70
2023-03-22T12:33:33.055Z,53.40
2023-03-22T12:36:03.956Z,53.10
2023-03-22T12:38:53.620Z,52.90
2023-03-22T12:41:38.279Z,52.50
2023-03-22T12:44:17.591Z,52.00
2023-03-22T12:47:19.515Z,51.20
2023-03-22T12:49:59.065Z,50.70
2023-03-22T12:52:45.502Z,51.30
2023-03-22T12:55:29.422Z,51.80
2023-03-22T12:57:57.258Z,52.40
2023-03-22T13:00:39.652Z,52.00
2023-03-22T13:03:16.366Z,51.20
2023-03-22T13:10:30.550Z,51.20
2023-03-22T13:13:23.110Z,52.10
2023-03-22T13:15:56.041Z,51.70
2023-03-22T13:18:40.401Z,51.00
2023-03-22T13:21:19.457Z,52.20
2023-03-22T13:24:05.959Z,52.90
2023-03-22T13:26:38.220Z,53.50
2023-03-22T13:29:15.487Z,53.10
2023-03-22T13:31:58.272Z,52.60
2023-03-22T13:38:37.539Z,51.20
2023-03-22T13:41:09.492Z,51.30
2023-03-22T13:43:44.278Z,50.40
2023-03-22T13:46:20.858Z,49.10
2023-03-22T13:48:48.479Z,49.50
2023-03-22T13:51:31.997Z,49.60
2023-03-22T13:54:13.291Z,49.10
2023-03-22T13:57:01.743Z,48.90
2023-03-22T14:00:47.437Z,50.10
2023-03-22T14:03:31.114Z,49.30
2023-03-22T14:06:27.935Z,49.80
2023-03-22T14:09:06.805Z,48.50
2023-03-22T14:11:53.226Z,48.40
2023-03-22T14:14:26.056Z,49.30
2023-03-22T14:17:12.010Z,49.10
2023-03-22T14:20:12.276Z,49.10
